Wetterdaten: Woche 20.04.15 - 26.04.15 (KW17)
Datum Zeit Temp. Aussen +5cm Feuchte Auss Luftdruck Regen Sonnenschein Regendauer Solar Windben
20.04.2015 00:00 7,4 C 4,7 C 76 % 1023,4 hPa 0,0 l/m 0,00 h 0,00 h 0 W/m 9,3 km/h (2 Bft)
20.04.2015 01:00 7,8 C 5,4 C 77 % 1023,5 hPa 0,0 l/m 0,00 h 0,00 h 0 W/m 8,5 km/h (2 Bft)
20.04.2015 02:00 7,4 C 4,0 C 76 % 1023,7 hPa 0,0 l/m 0,00 h 0,00 h 0 W/m 3,2 km/h (1 Bft)
20.04.2015 03:00 5,9 C 3,1 C 79 % 1024,2 hPa 0,0 l/m 0,00 h 0,00 h 0 W/m 2,5 km/h (1 Bft)
20.04.2015 04:00 4,7 C 2,5 C 82 % 1024,4 hPa 0,0 l/m 0,00 h 0,00 h 0 W/m 3,0 km/h (1 Bft)
20.04.2015 05:00 4,0 C 2,2 C 85 % 1024,8 hPa 0,0 l/m 0,00 h 0,00 h 0 W/m 3,0 km/h (1 Bft)
20.04.2015 06:00 3,5 C 1,7 C 86 % 1025,1 hPa 0,0 l/m 0,13 h 0,00 h 14 W/m 2,4 km/h (1 Bft)
20.04.2015 07:00 3,4 C 2,5 C 88 % 1025,7 hPa 0,0 l/m 0,50 h 0,00 h 74 W/m 3,5 km/h (1 Bft)
20.04.2015 08:00 5,0 C 5,3 C 91 % 1026,4 hPa 0,0 l/m 0,93 h 0,00 h 203 W/m 6,2 km/h (2 Bft)
20.04.2015 09:00 9,1 C 9,4 C 80 % 1026,9 hPa 0,0 l/m 1,00 h 0,00 h 381 W/m 8,2 km/h (2 Bft)
20.04.2015 10:00 12,8 C 12,3 C 67 % 1027,1 hPa 0,0 l/m 1,00 h 0,00 h 591 W/m 11,9 km/h (2 Bft)
20.04.2015 11:00 15,6 C 14,7 C 54 % 1027,4 hPa 0,0 l/m 1,00 h 0,00 h 687 W/m 20,6 km/h (4 Bft)
20.04.2015 12:00 17,1 C 16,4 C 49 % 1027,5 hPa 0,0 l/m 0,80 h 0,00 h 669 W/m 22,6 km/h (4 Bft)
20.04.2015 13:00 18,3 C 17,4 C 43 % 1027,4 hPa 0,0 l/m 1,00 h 0,00 h 799 W/m 21,3 km/h (4 Bft)
20.04.2015 14:00 18,9 C 21,1 C 44 % 1027,1 hPa 0,0 l/m 1,00 h 0,00 h 768 W/m 22,3 km/h (4 Bft)
20.04.2015 15:00 19,4 C 24,3 C 43 % 1026,8 hPa 0,0 l/m 1,00 h 0,00 h 695 W/m 23,0 km/h (4 Bft)
20.04.2015 16:00 19,3 C 21,5 C 42 % 1026,6 hPa 0,0 l/m 1,00 h 0,00 h 579 W/m 25,9 km/h (4 Bft)
20.04.2015 17:00 19,3 C 17,1 C 43 % 1026,4 hPa 0,0 l/m 1,00 h 0,00 h 434 W/m 24,8 km/h (4 Bft)
20.04.2015 18:00 18,8 C 16,2 C 46 % 1026,4 hPa 0,0 l/m 1,00 h 0,00 h 267 W/m 25,0 km/h (4 Bft)
20.04.2015 19:00 18,0 C 15,4 C 49 % 1026,4 hPa 0,0 l/m 0,20 h 0,00 h 72 W/m 18,4 km/h (3 Bft)
20.04.2015 20:00 16,7 C 13,2 C 53 % 1026,9 hPa 0,0 l/m 0,17 h 0,00 h 16 W/m 9,9 km/h (2 Bft)
20.04.2015 21:00 14,7 C 10,3 C 59 % 1027,4 hPa 0,0 l/m 0,00 h 0,00 h 0 W/m 5,2 km/h (1 Bft)
20.04.2015 22:00 12,6 C 9,2 C 66 % 1027,8 hPa 0,0 l/m 0,00 h 0,00 h 0 W/m 6,5 km/h (2 Bft)
20.04.2015 23:00 12,1 C 9,9 C 64 % 1027,9 hPa 0,0 l/m 0,00 h 0,00 h 0 W/m 9,2 km/h (2 Bft)
21.04.2015 00:00 11,2 C 7,9 C 64 % 1028,2 hPa 0,0 l/m 0,00 h 0,00 h 0 W/m 4,3 km/h (1 Bft)
21.04.2015 01:00 9,3 C 6,4 C 70 % 1028,5 hPa 0,0 l/m 0,00 h 0,00 h 0 W/m 4,5 km/h (1 Bft)
21.04.2015 02:00 8,2 C 6,1 C 74 % 1028,6 hPa 0,0 l/m 0,00 h 0,00 h 0 W/m 5,1 km/h (1 Bft)
21.04.2015 03:00 7,1 C 4,9 C 76 % 1028,9 hPa 0,0 l/m 0,00 h 0,00 h 0 W/m 4,4 km/h (1 Bft)
21.04.2015 04:00 6,0 C 4,4 C 79 % 1029,1 hPa 0,0 l/m 0,00 h 0,00 h 0 W/m 5,2 km/h (1 Bft)
21.04.2015 05:00 5,7 C 4,6 C 84 % 1029,1 hPa 0,0 l/m 0,00 h 0,00 h 0 W/m 7,5 km/h (2 Bft)
21.04.2015 06:00 5,0 C 3,6 C 85 % 1029,3 hPa 0,0 l/m 0,27 h 0,00 h 18 W/m 3,8 km/h (1 Bft)
21.04.2015 07:00 4,7 C 4,0 C 87 % 1029,7 hPa 0,0 l/m 1,00 h 0,00 h 107 W/m 3,4 km/h (1 Bft)
21.04.2015 08:00 5,9 C 6,0 C 91 % 1030,2 hPa 0,0 l/m 1,00 h 0,00 h 264 W/m 5,8 km/h (2 Bft)
21.04.2015 09:00 8,9 C 8,5 C 89 % 1030,6 hPa 0,0 l/m 1,00 h 0,00 h 446 W/m 7,5 km/h (2 Bft)
21.04.2015 10:00 12,8 C 11,6 C 75 % 1030,5 hPa 0,0 l/m 1,00 h 0,00 h 559 W/m 8,7 km/h (2 Bft)
21.04.2015 11:00 15,8 C 14,1 C 66 % 1030,7 hPa 0,0 l/m 0,93 h 0,00 h 653 W/m 13,0 km/h (3 Bft)
21.04.2015 12:00 17,7 C 15,9 C 58 % 1030,8 hPa 0,0 l/m 0,97 h 0,00 h 743 W/m 15,9 km/h (3 Bft)
21.04.2015 13:00 19,7 C 17,9 C 51 % 1030,2 hPa 0,0 l/m 1,00 h 0,00 h 813 W/m 14,0 km/h (3 Bft)
21.04.2015 14:00 20,7 C 18,0 C 42 % 1029,8 hPa 0,0 l/m 1,00 h 0,00 h 783 W/m 16,0 km/h (3 Bft)
21.04.2015 15:00 21,6 C 19,1 C 40 % 1029,5 hPa 0,0 l/m 1,00 h 0,00 h 704 W/m 16,4 km/h (3 Bft)
21.04.2015 16:00 21,5 C 20,3 C 38 % 1029,2 hPa 0,0 l/m 1,00 h 0,00 h 591 W/m 21,3 km/h (4 Bft)
21.04.2015 17:00 21,0 C 18,5 C 38 % 1028,8 hPa 0,0 l/m 1,00 h 0,00 h 445 W/m 21,6 km/h (4 Bft)
21.04.2015 18:00 20,0 C 17,0 C 44 % 1028,6 hPa 0,0 l/m 1,00 h 0,00 h 271 W/m 20,6 km/h (4 Bft)
21.04.2015 19:00 18,8 C 15,9 C 48 % 1028,6 hPa 0,0 l/m 0,20 h 0,00 h 61 W/m 20,6 km/h (4 Bft)
21.04.2015 20:00 16,6 C 13,7 C 55 % 1029,1 hPa 0,0 l/m 0,00 h 0,00 h 13 W/m 17,3 km/h (3 Bft)
21.04.2015 21:00 14,3 C 11,9 C 59 % 1029,7 hPa 0,0 l/m 0,00 h 0,00 h 0 W/m 18,8 km/h (3 Bft)
21.04.2015 22:00 12,2 C 10,1 C 62 % 1030,2 hPa 0,0 l/m 0,00 h 0,00 h 0 W/m 19,0 km/h (3 Bft)
21.04.2015 23:00 10,4 C 8,8 C 74 % 1030,5 hPa 0,0 l/m 0,00 h 0,00 h 0 W/m 15,5 km/h (3 Bft)
22.04.2015 00:00 8,8 C 7,4 C 81 % 1030,6 hPa 0,0 l/m 0,00 h 0,00 h 0 W/m 17,4 km/h (3 Bft)
22.04.2015 01:00 7,4 C 6,2 C 84 % 1030,7 hPa 0,0 l/m 0,00 h 0,00 h 0 W/m 11,9 km/h (2 Bft)
22.04.2015 02:00 6,2 C 5,3 C 87 % 1030,6 hPa 0,0 l/m 0,00 h 0,00 h 0 W/m 11,0 km/h (2 Bft)
22.04.2015 03:00 5,2 C 4,6 C 91 % 1030,4 hPa 0,0 l/m 0,00 h 0,00 h 0 W/m 8,8 km/h (2 Bft)
22.04.2015 04:00 4,5 C 4,1 C 93 % 1030,2 hPa 0,0 l/m 0,00 h 0,00 h 0 W/m 6,3 km/h (2 Bft)
22.04.2015 05:00 3,8 C 3,4 C 94 % 1029,9 hPa 0,0 l/m 0,00 h 0,00 h 0 W/m 4,8 km/h (1 Bft)
22.04.2015 06:00 3,6 C 3,5 C 95 % 1029,6 hPa 0,0 l/m 0,00 h 0,00 h 10 W/m 2,5 km/h (1 Bft)
22.04.2015 07:00 4,8 C 4,8 C 96 % 1029,4 hPa 0,0 l/m 0,00 h 0,00 h 33 W/m 7,7 km/h (2 Bft)
22.04.2015 08:00 5,5 C 5,5 C 95 % 1029,4 hPa 0,0 l/m 0,00 h 0,00 h 57 W/m 13,2 km/h (3 Bft)
22.04.2015 09:00 6,4 C 6,6 C 94 % 1029,2 hPa 0,0 l/m 0,00 h 0,00 h 114 W/m 9,8 km/h (2 Bft)
22.04.2015 10:00 7,4 C 7,7 C 89 % 1029,1 hPa 0,0 l/m 0,00 h 0,00 h 179 W/m 13,4 km/h (3 Bft)
22.04.2015 11:00 9,2 C 9,7 C 82 % 1028,6 hPa 0,0 l/m 0,20 h 0,00 h 306 W/m 13,6 km/h (3 Bft)
22.04.2015 12:00 11,3 C 11,8 C 74 % 1028,0 hPa 0,0 l/m 0,50 h 0,00 h 537 W/m 18,5 km/h (3 Bft)
22.04.2015 13:00 12,9 C 13,0 C 67 % 1027,2 hPa 0,0 l/m 0,70 h 0,00 h 696 W/m 20,6 km/h (4 Bft)
22.04.2015 14:00 14,2 C 13,4 C 63 % 1026,3 hPa 0,0 l/m 0,77 h 0,00 h 644 W/m 21,3 km/h (4 Bft)
22.04.2015 15:00 15,2 C 14,4 C 61 % 1025,4 hPa 0,0 l/m 1,00 h 0,00 h 714 W/m 20,8 km/h (4 Bft)
22.04.2015 16:00 15,8 C 15,8 C 59 % 1024,8 hPa 0,0 l/m 1,00 h 0,00 h 598 W/m 20,2 km/h (4 Bft)
22.04.2015 17:00 15,9 C 14,4 C 58 % 1024,3 hPa 0,0 l/m 0,93 h 0,00 h 422 W/m 21,4 km/h (4 Bft)
22.04.2015 18:00 15,4 C 13,6 C 60 % 1023,9 hPa 0,0 l/m 1,00 h 0,00 h 289 W/m 18,2 km/h (3 Bft)
22.04.2015 19:00 14,3 C 12,3 C 63 % 1023,7 hPa 0,0 l/m 0,10 h 0,00 h 56 W/m 14,6 km/h (3 Bft)
22.04.2015 20:00 13,3 C 11,2 C 67 % 1023,7 hPa 0,0 l/m 0,43 h 0,00 h 20 W/m 12,4 km/h (3 Bft)
22.04.2015 21:00 11,7 C 9,3 C 71 % 1023,8 hPa 0,0 l/m 0,00 h 0,00 h 0 W/m 8,5 km/h (2 Bft)
22.04.2015 22:00 10,3 C 8,1 C 75 % 1023,7 hPa 0,0 l/m 0,00 h 0,00 h 0 W/m 6,9 km/h (2 Bft)
22.04.2015 23:00 9,3 C 7,7 C 81 % 1023,5 hPa 0,0 l/m 0,00 h 0,00 h 0 W/m 10,8 km/h (2 Bft)
23.04.2015 00:00 8,2 C 6,6 C 84 % 1023,2 hPa 0,0 l/m 0,00 h 0,00 h 0 W/m 7,0 km/h (2 Bft)
23.04.2015 01:00 7,2 C 5,7 C 86 % 1023,0 hPa 0,0 l/m 0,00 h 0,00 h 0 W/m 5,2 km/h (1 Bft)
23.04.2015 02:00 6,2 C 5,0 C 88 % 1022,5 hPa 0,0 l/m 0,00 h 0,00 h 0 W/m 5,6 km/h (1 Bft)
23.04.2015 03:00 5,5 C 4,3 C 90 % 1022,0 hPa 0,0 l/m 0,00 h 0,00 h 0 W/m 3,6 km/h (1 Bft)
23.04.2015 04:00 4,6 C 3,7 C 91 % 1021,5 hPa 0,0 l/m 0,00 h 0,00 h 0 W/m 3,4 km/h (1 Bft)
23.04.2015 05:00 3,9 C 2,9 C 92 % 1020,9 hPa 0,0 l/m 0,00 h 0,00 h 0 W/m 3,3 km/h (1 Bft)
23.04.2015 06:00 3,3 C 2,8 C 92 % 1020,8 hPa 0,0 l/m 0,00 h 0,00 h 15 W/m 3,9 km/h (1 Bft)
23.04.2015 07:00 3,5 C 3,6 C 93 % 1020,8 hPa 0,0 l/m 0,87 h 0,00 h 94 W/m 5,7 km/h (1 Bft)
23.04.2015 08:00 5,3 C 5,2 C 95 % 1021,0 hPa 0,0 l/m 1,00 h 0,00 h 249 W/m 9,1 km/h (2 Bft)
23.04.2015 09:00 7,5 C 7,4 C 96 % 1020,7 hPa 0,0 l/m 1,00 h 0,00 h 428 W/m 8,6 km/h (2 Bft)
23.04.2015 10:00 9,7 C 9,2 C 88 % 1020,5 hPa 0,0 l/m 1,00 h 0,00 h 571 W/m 12,9 km/h (3 Bft)
23.04.2015 11:00 11,1 C 10,7 C 82 % 1020,1 hPa 0,0 l/m 1,00 h 0,00 h 655 W/m 11,1 km/h (2 Bft)
23.04.2015 12:00 13,0 C 12,5 C 73 % 1019,5 hPa 0,0 l/m 1,00 h 0,00 h 738 W/m 11,0 km/h (2 Bft)
23.04.2015 13:00 15,2 C 14,6 C 62 % 1018,9 hPa 0,0 l/m 1,00 h 0,00 h 792 W/m 10,5 km/h (2 Bft)
23.04.2015 14:00 17,3 C 16,6 C 57 % 1018,4 hPa 0,0 l/m 1,00 h 0,00 h 769 W/m 10,3 km/h (2 Bft)
23.04.2015 15:00 17,4 C 17,3 C 55 % 1017,7 hPa 0,0 l/m 1,00 h 0,00 h 695 W/m 11,7 km/h (2 Bft)
23.04.2015 16:00 17,5 C 16,5 C 54 % 1017,0 hPa 0,0 l/m 1,00 h 0,00 h 577 W/m 10,4 km/h (2 Bft)
23.04.2015 17:00 17,4 C 15,1 C 54 % 1016,5 hPa 0,0 l/m 1,00 h 0,00 h 425 W/m 11,6 km/h (2 Bft)
23.04.2015 18:00 16,6 C 13,9 C 54 % 1016,1 hPa 0,0 l/m 1,00 h 0,00 h 265 W/m 10,4 km/h (2 Bft)
23.04.2015 19:00 15,6 C 13,0 C 61 % 1015,8 hPa 0,0 l/m 0,23 h 0,00 h 81 W/m 11,5 km/h (2 Bft)
23.04.2015 20:00 14,3 C 11,5 C 63 % 1015,8 hPa 0,0 l/m 0,00 h 0,00 h 18 W/m 8,3 km/h (2 Bft)
23.04.2015 21:00 12,5 C 9,0 C 66 % 1015,8 hPa 0,0 l/m 0,00 h 0,00 h 0 W/m 3,8 km/h (1 Bft)
23.04.2015 22:00 10,6 C 7,6 C 72 % 1015,6 hPa 0,0 l/m 0,00 h 0,00 h 0 W/m 1,3 km/h (1 Bft)
23.04.2015 23:00 8,9 C 6,8 C 77 % 1015,5 hPa 0,0 l/m 0,00 h 0,00 h 0 W/m 1,2 km/h (1 Bft)
24.04.2015 00:00 7,7 C 6,2 C 81 % 1015,4 hPa 0,0 l/m 0,00 h 0,00 h 0 W/m 1,8 km/h (1 Bft)
24.04.2015 01:00 6,9 C 5,6 C 85 % 1015,0 hPa 0,0 l/m 0,00 h 0,00 h 0 W/m 1,2 km/h (1 Bft)
24.04.2015 02:00 6,1 C 5,1 C 87 % 1014,6 hPa 0,0 l/m 0,00 h 0,00 h 0 W/m 1,2 km/h (1 Bft)
24.04.2015 03:00 5,4 C 4,7 C 88 % 1014,2 hPa 0,0 l/m 0,00 h 0,00 h 0 W/m 1,1 km/h (1 Bft)
24.04.2015 04:00 5,0 C 4,4 C 90 % 1014,0 hPa 0,0 l/m 0,00 h 0,00 h 0 W/m 1,7 km/h (1 Bft)
24.04.2015 05:00 4,5 C 4,1 C 91 % 1013,8 hPa 0,0 l/m 0,00 h 0,00 h 0 W/m 1,4 km/h (1 Bft)
24.04.2015 06:00 4,2 C 3,9 C 92 % 1013,6 hPa 0,0 l/m 0,00 h 0,00 h 15 W/m 4,0 km/h (1 Bft)
24.04.2015 07:00 4,7 C 4,9 C 94 % 1013,7 hPa 0,0 l/m 0,77 h 0,00 h 95 W/m 5,8 km/h (2 Bft)
24.04.2015 08:00 6,3 C 6,5 C 95 % 1013,7 hPa 0,0 l/m 1,00 h 0,00 h 250 W/m 7,2 km/h (2 Bft)
24.04.2015 09:00 9,7 C 8,9 C 91 % 1013,5 hPa 0,0 l/m 1,00 h 0,00 h 422 W/m 9,4 km/h (2 Bft)
24.04.2015 10:00 14,8 C 12,3 C 72 % 1013,4 hPa 0,0 l/m 1,00 h 0,00 h 567 W/m 8,2 km/h (2 Bft)
24.04.2015 11:00 18,3 C 14,9 C 57 % 1013,1 hPa 0,0 l/m 1,00 h 0,00 h 682 W/m 13,3 km/h (3 Bft)
24.04.2015 12:00 20,1 C 16,8 C 50 % 1012,5 hPa 0,0 l/m 1,00 h 0,00 h 745 W/m 18,0 km/h (3 Bft)
24.04.2015 13:00 21,3 C 18,4 C 46 % 1012,0 hPa 0,0 l/m 1,00 h 0,00 h 765 W/m 19,2 km/h (3 Bft)
24.04.2015 14:00 22,2 C 19,6 C 44 % 1011,6 hPa 0,0 l/m 1,00 h 0,00 h 750 W/m 20,2 km/h (4 Bft)
24.04.2015 15:00 23,0 C 20,0 C 41 % 1010,9 hPa 0,0 l/m 1,00 h 0,00 h 684 W/m 19,0 km/h (3 Bft)
24.04.2015 16:00 23,7 C 19,5 C 38 % 1010,2 hPa 0,0 l/m 1,00 h 0,00 h 559 W/m 18,2 km/h (3 Bft)
24.04.2015 17:00 23,0 C 18,8 C 43 % 1009,7 hPa 0,0 l/m 0,97 h 0,00 h 337 W/m 15,9 km/h (3 Bft)
24.04.2015 18:00 22,3 C 18,2 C 47 % 1009,4 hPa 0,0 l/m 0,93 h 0,00 h 226 W/m 14,7 km/h (3 Bft)
24.04.2015 19:00 21,4 C 16,7 C 49 % 1009,0 hPa 0,0 l/m 0,40 h 0,00 h 88 W/m 7,9 km/h (2 Bft)
24.04.2015 20:00 20,3 C 14,6 C 54 % 1008,8 hPa 0,0 l/m 0,43 h 0,00 h 23 W/m 4,3 km/h (1 Bft)
24.04.2015 21:00 18,7 C 13,6 C 58 % 1008,7 hPa 0,0 l/m 0,00 h 0,00 h 0 W/m 5,0 km/h (1 Bft)
24.04.2015 22:00 17,7 C 13,3 C 61 % 1008,6 hPa 0,0 l/m 0,00 h 0,00 h 0 W/m 7,6 km/h (2 Bft)
24.04.2015 23:00 17,3 C 13,2 C 62 % 1008,4 hPa 0,0 l/m 0,00 h 0,00 h 0 W/m 10,5 km/h (2 Bft)
25.04.2015 00:00 17,1 C 13,3 C 70 % 1008,7 hPa 0,2 l/m 0,00 h 0,40 h 0 W/m 16,7 km/h (3 Bft)
25.04.2015 01:00 15,7 C 12,0 C 81 % 1008,5 hPa 0,0 l/m 0,00 h 0,00 h 0 W/m 4,5 km/h (1 Bft)
25.04.2015 02:00 14,3 C 11,2 C 82 % 1008,3 hPa 0,0 l/m 0,00 h 0,00 h 0 W/m 7,6 km/h (2 Bft)
25.04.2015 03:00 13,4 C 10,6 C 80 % 1008,2 hPa 0,0 l/m 0,00 h 0,00 h 0 W/m 6,7 km/h (2 Bft)
25.04.2015 04:00 12,9 C 10,6 C 82 % 1007,8 hPa 0,0 l/m 0,00 h 0,00 h 0 W/m 3,6 km/h (1 Bft)
25.04.2015 05:00 12,4 C 10,3 C 84 % 1007,9 hPa 0,0 l/m 0,00 h 0,03 h 0 W/m 8,3 km/h (2 Bft)
25.04.2015 06:00 12,2 C 10,1 C 86 % 1007,9 hPa 0,2 l/m 0,00 h 0,77 h 6 W/m 7,9 km/h (2 Bft)
25.04.2015 07:00 11,8 C 10,0 C 89 % 1007,9 hPa 0,4 l/m 0,00 h 0,93 h 23 W/m 5,9 km/h (2 Bft)
25.04.2015 08:00 11,4 C 10,0 C 91 % 1008,2 hPa 0,0 l/m 0,00 h 0,97 h 43 W/m 9,0 km/h (2 Bft)
25.04.2015 09:00 11,4 C 10,6 C 92 % 1008,2 hPa 0,0 l/m 0,00 h 0,33 h 140 W/m 10,4 km/h (2 Bft)
25.04.2015 10:00 12,4 C 11,8 C 91 % 1008,2 hPa 0,0 l/m 0,00 h 0,20 h 235 W/m 12,4 km/h (3 Bft)
25.04.2015 11:00 13,6 C 12,4 C 86 % 1007,8 hPa 0,0 l/m 0,00 h 0,27 h 239 W/m 13,4 km/h (3 Bft)
25.04.2015 12:00 14,5 C 12,9 C 85 % 1007,6 hPa 0,0 l/m 0,00 h 0,83 h 292 W/m 14,8 km/h (3 Bft)
25.04.2015 13:00 15,2 C 13,1 C 84 % 1007,2 hPa 0,0 l/m 0,00 h 0,97 h 242 W/m 13,0 km/h (3 Bft)
25.04.2015 14:00 15,4 C 13,6 C 84 % 1007,0 hPa 0,2 l/m 0,30 h 0,77 h 365 W/m 16,2 km/h (3 Bft)
25.04.2015 15:00 15,7 C 13,3 C 80 % 1006,9 hPa 0,2 l/m 0,17 h 0,27 h 196 W/m 16,5 km/h (3 Bft)
25.04.2015 16:00 14,9 C 13,1 C 84 % 1006,7 hPa 0,0 l/m 0,00 h 0,03 h 168 W/m 16,4 km/h (3 Bft)
25.04.2015 17:00 14,9 C 12,9 C 86 % 1006,7 hPa 0,0 l/m 0,47 h 0,37 h 204 W/m 15,4 km/h (3 Bft)
25.04.2015 18:00 15,5 C 13,2 C 82 % 1006,7 hPa 0,0 l/m 0,43 h 0,00 h 180 W/m 13,2 km/h (3 Bft)
25.04.2015 19:00 15,7 C 13,2 C 81 % 1006,5 hPa 0,0 l/m 0,17 h 0,00 h 76 W/m 5,8 km/h (2 Bft)
25.04.2015 20:00 15,2 C 12,1 C 80 % 1006,8 hPa 0,0 l/m 0,10 h 0,00 h 17 W/m 4,7 km/h (1 Bft)
25.04.2015 21:00 14,0 C 10,8 C 84 % 1007,3 hPa 0,2 l/m 0,00 h 0,00 h 0 W/m 5,0 km/h (1 Bft)
25.04.2015 22:00 12,6 C 10,0 C 88 % 1007,3 hPa 0,0 l/m 0,00 h 0,00 h 0 W/m 7,8 km/h (2 Bft)
25.04.2015 23:00 12,0 C 9,7 C 90 % 1007,2 hPa 0,0 l/m 0,00 h 0,00 h 0 W/m 7,7 km/h (2 Bft)
26.04.2015 00:00 11,8 C 10,4 C 91 % 1007,3 hPa 0,0 l/m 0,00 h 0,00 h 0 W/m 9,3 km/h (2 Bft)
26.04.2015 01:00 12,3 C 10,6 C 91 % 1007,4 hPa 1,6 l/m 0,00 h 0,80 h 0 W/m 16,1 km/h (3 Bft)
26.04.2015 02:00 11,9 C 10,5 C 94 % 1006,9 hPa 0,6 l/m 0,00 h 0,33 h 0 W/m 8,5 km/h (2 Bft)
26.04.2015 03:00 11,7 C 10,1 C 95 % 1006,5 hPa 0,0 l/m 0,00 h 0,20 h 0 W/m 9,5 km/h (2 Bft)
26.04.2015 04:00 11,6 C 10,3 C 96 % 1006,3 hPa 0,0 l/m 0,00 h 0,13 h 0 W/m 9,6 km/h (2 Bft)
26.04.2015 05:00 11,4 C 10,0 C 96 % 1006,0 hPa 0,0 l/m 0,00 h 0,03 h 0 W/m 10,8 km/h (2 Bft)
26.04.2015 06:00 11,5 C 10,2 C 97 % 1006,0 hPa 0,0 l/m 0,00 h 0,00 h 5 W/m 12,7 km/h (3 Bft)
26.04.2015 07:00 11,9 C 10,8 C 97 % 1006,4 hPa 0,0 l/m 0,13 h 0,00 h 57 W/m 11,4 km/h (2 Bft)
26.04.2015 08:00 12,5 C 11,3 C 97 % 1006,5 hPa 0,0 l/m 0,03 h 0,00 h 84 W/m 14,2 km/h (3 Bft)
26.04.2015 09:00 13,4 C 12,1 C 96 % 1006,5 hPa 0,0 l/m 0,77 h 0,00 h 332 W/m 18,3 km/h (3 Bft)
26.04.2015 10:00 14,8 C 13,6 C 87 % 1006,6 hPa 0,0 l/m 0,63 h 0,00 h 387 W/m 18,7 km/h (3 Bft)
26.04.2015 11:00 16,0 C 14,6 C 81 % 1006,6 hPa 0,0 l/m 0,60 h 0,00 h 369 W/m 17,4 km/h (3 Bft)
26.04.2015 12:00 16,7 C 14,5 C 78 % 1006,3 hPa 0,0 l/m 0,07 h 0,23 h 245 W/m 15,7 km/h (3 Bft)
26.04.2015 13:00 15,6 C 13,3 C 83 % 1006,2 hPa 0,2 l/m 0,00 h 0,77 h 208 W/m 14,5 km/h (3 Bft)
26.04.2015 14:00 15,9 C 14,5 C 84 % 1005,6 hPa 0,2 l/m 0,70 h 0,07 h 437 W/m 14,2 km/h (3 Bft)
26.04.2015 15:00 17,4 C 15,1 C 76 % 1005,3 hPa 0,0 l/m 0,43 h 0,30 h 318 W/m 14,7 km/h (3 Bft)
26.04.2015 16:00 15,7 C 13,0 C 82 % 1005,0 hPa 0,2 l/m 0,10 h 0,17 h 199 W/m 8,6 km/h (2 Bft)
26.04.2015 17:00 15,3 C 13,8 C 84 % 1004,6 hPa 0,0 l/m 0,17 h 0,00 h 224 W/m 8,9 km/h (2 Bft)
26.04.2015 18:00 15,8 C 13,8 C 82 % 1004,4 hPa 0,0 l/m 0,10 h 0,00 h 140 W/m 9,0 km/h (2 Bft)
26.04.2015 19:00 15,3 C 13,0 C 82 % 1004,3 hPa 0,0 l/m 0,00 h 0,10 h 55 W/m 8,1 km/h (2 Bft)
26.04.2015 20:00 14,3 C 12,2 C 85 % 1004,2 hPa 0,0 l/m 0,00 h 0,03 h 14 W/m 9,6 km/h (2 Bft)
26.04.2015 21:00 13,5 C 11,7 C 89 % 1004,3 hPa 0,0 l/m 0,00 h 0,10 h 0 W/m 6,9 km/h (2 Bft)
26.04.2015 22:00 13,1 C 11,5 C 90 % 1004,1 hPa 0,2 l/m 0,00 h 0,47 h 0 W/m 4,5 km/h (1 Bft)
26.04.2015 23:00 12,8 C 11,1 C 92 % 1004,0 hPa 0,2 l/m 0,00 h 1,00 h 0 W/m 9,4 km/h (2 Bft)
Min-Datum _ 23.04.15 20.04.15 21.04.15 26.04.15 - - - - 20.04.15
_ Min-Zeit 07:02 05:58 16:50 23:08 - - - - 03:36
Minimum _ 3,1 C 1,7 C 35 % 1003,9 hPa - - - - 0,0 km/h (0 Bft)
Max-Datum _ 24.04.15 20.04.15 26.04.15 21.04.15 26.04.15 20.04.15 25.04.15 22.04.15 20.04.15
_ Max-Zeit 16:32 15:34 06:12 12:16 01:24 06:48 00:28 13:10 14:18
Maximum _ 23,9 C 26,1 C 97 % 1031,0 hPa 1,6 l/m 0,03 h 0,03 h 1049 W/m 37,7 km/h
N-NO (5 Bft)
Durchschnitt _ 12,5 C 10,8 C 75 % 1018,2 hPa #4,6 l/m #60:42 h #11:54 h 338 W/m 10,9 km/h (2 Bft)
© 2015 W. Hausmann